DAAV

Jijel Ferhat Abbas Airport

Jijel, Algeria
METAR DAAV 232300Z 13002KT CAVOK 09/07 Q1028
Observed Flight Rules
Jan-23 @ 23:00 UTC (48 minutes ago) Visual Flight Rules
Wind Visibility Clouds
130° at 2 knots 10,000+ meters
  • Clear skies
Temperatures Readings
Current 9°C / 48°F
Dewpoint 7°C / 45°F
Humidity 87%
Altimeter 30.35" Hg
Pressure 1028 hPa
Elevation 11
METAR DAAV 232300Z 13002KT CAVOK 09/07 Q1028
Observed Flight Rules
Jan-23 @ 23:00 UTC
(48 minutes ago)
VFR
Wind Visibility
130° at 2 knots 10,000+ meters
Clouds
  • Clear skies
Temperature Dewpoint
9°C / 48°F 7°C / 45°F
Humidity Altimeter Pressure
87% 30.35" Hg 1028 hPa